sensor_id;sensor_type;location;lat;lon;timestamp;pressure;altitude;pressure_sealevel;temperature;humidity
34742;BME280;20968;42.696;23.360;2022-07-23T00:02:19;95501.41;;;26.54;45.29
34742;BME280;20968;42.696;23.360;2022-07-23T00:04:44;95523.09;;;26.52;45.10
34742;BME280;20968;42.696;23.360;2022-07-23T00:07:10;95518.97;;;26.53;45.77
34742;BME280;20968;42.696;23.360;2022-07-23T00:09:35;95510.88;;;26.49;45.74
34742;BME280;20968;42.696;23.360;2022-07-23T00:12:00;95519.91;;;26.48;45.28
34742;BME280;20968;42.696;23.360;2022-07-23T00:14:26;95522.19;;;26.49;45.77
34742;BME280;20968;42.696;23.360;2022-07-23T00:16:51;95526.53;;;26.43;45.54
34742;BME280;20968;42.696;23.360;2022-07-23T00:19:17;95524.44;;;26.51;45.71
34742;BME280;20968;42.696;23.360;2022-07-23T00:21:42;95533.16;;;26.38;46.03
34742;BME280;20968;42.696;23.360;2022-07-23T00:24:07;95533.56;;;26.27;45.96
34742;BME280;20968;42.696;23.360;2022-07-23T00:26:33;95531.75;;;26.14;46.10
34742;BME280;20968;42.696;23.360;2022-07-23T00:28:58;95529.31;;;26.18;46.21
34742;BME280;20968;42.696;23.360;2022-07-23T00:31:24;95530.63;;;26.17;45.39
34742;BME280;20968;42.696;23.360;2022-07-23T00:33:49;95532.53;;;26.15;45.71
34742;BME280;20968;42.696;23.360;2022-07-23T00:36:14;95534.59;;;26.14;45.63
34742;BME280;20968;42.696;23.360;2022-07-23T00:38:40;95533.84;;;26.14;45.63
34742;BME280;20968;42.696;23.360;2022-07-23T00:41:05;95534.47;;;25.97;46.48
34742;BME280;20968;42.696;23.360;2022-07-23T00:43:31;95541.63;;;25.98;46.42
34742;BME280;20968;42.696;23.360;2022-07-23T00:45:56;95531.47;;;25.96;45.73
34742;BME280;20968;42.696;23.360;2022-07-23T00:48:22;95525.13;;;25.80;46.56
34742;BME280;20968;42.696;23.360;2022-07-23T00:50:47;95537.00;;;25.79;46.61
34742;BME280;20968;42.696;23.360;2022-07-23T00:53:13;95532.47;;;25.76;46.42
34742;BME280;20968;42.696;23.360;2022-07-23T00:55:40;95540.16;;;25.83;45.86
34742;BME280;20968;42.696;23.360;2022-07-23T00:58:05;95529.47;;;25.66;46.46
34742;BME280;20968;42.696;23.360;2022-07-23T01:00:31;95533.44;;;25.63;46.35
34742;BME280;20968;42.696;23.360;2022-07-23T01:02:57;95529.13;;;25.55;46.03
34742;BME280;20968;42.696;23.360;2022-07-23T01:05:22;95515.66;;;25.38;46.24
34742;BME280;20968;42.696;23.360;2022-07-23T01:07:52;95524.13;;;25.23;46.70
34742;BME280;20968;42.696;23.360;2022-07-23T01:10:18;95528.63;;;25.26;46.53
34742;BME280;20968;42.696;23.360;2022-07-23T01:13:06;95529.41;;;25.27;46.72
34742;BME280;20968;42.696;23.360;2022-07-23T01:15:33;95522.44;;;25.20;46.73
34742;BME280;20968;42.696;23.360;2022-07-23T01:17:58;95526.22;;;25.16;46.64
34742;BME280;20968;42.696;23.360;2022-07-23T01:20:24;95517.53;;;25.06;46.83
34742;BME280;20968;42.696;23.360;2022-07-23T01:22:50;95523.75;;;24.82;47.00
34742;BME280;20968;42.696;23.360;2022-07-23T01:25:15;95523.00;;;24.67;47.77
34742;BME280;20968;42.696;23.360;2022-07-23T01:27:41;95520.19;;;24.67;47.57
34742;BME280;20968;42.696;23.360;2022-07-23T01:30:07;95517.56;;;24.69;47.37
34742;BME280;20968;42.696;23.360;2022-07-23T01:32:33;95520.00;;;24.72;48.14
34742;BME280;20968;42.696;23.360;2022-07-23T01:34:58;95518.50;;;24.71;48.38
34742;BME280;20968;42.696;23.360;2022-07-23T01:37:24;95526.75;;;24.69;48.50
34742;BME280;20968;42.696;23.360;2022-07-23T01:39:49;95518.88;;;24.75;48.42
34742;BME280;20968;42.696;23.360;2022-07-23T01:42:15;95517.72;;;24.78;48.53
34742;BME280;20968;42.696;23.360;2022-07-23T01:44:40;95520.19;;;24.74;48.55
34742;BME280;20968;42.696;23.360;2022-07-23T01:47:05;95521.88;;;24.77;48.23
34742;BME280;20968;42.696;23.360;2022-07-23T01:49:31;95526.38;;;24.80;48.51
34742;BME280;20968;42.696;23.360;2022-07-23T01:51:56;95523.75;;;24.82;48.75
34742;BME280;20968;42.696;23.360;2022-07-23T01:54:26;95525.44;;;24.85;48.73
34742;BME280;20968;42.696;23.360;2022-07-23T01:56:51;95521.13;;;24.84;48.58
34742;BME280;20968;42.696;23.360;2022-07-23T01:59:16;95522.25;;;24.81;48.93
34742;BME280;20968;42.696;23.360;2022-07-23T02:01:42;95520.75;;;24.80;48.60
34742;BME280;20968;42.696;23.360;2022-07-23T02:04:07;95520.34;;;24.76;48.53
34742;BME280;20968;42.696;23.360;2022-07-23T02:06:32;95526.75;;;24.69;48.62
34742;BME280;20968;42.696;23.360;2022-07-23T02:08:58;95510.59;;;24.62;48.85
34742;BME280;20968;42.696;23.360;2022-07-23T02:11:23;95522.25;;;24.66;48.96
34742;BME280;20968;42.696;23.360;2022-07-23T02:13:49;95523.38;;;24.63;48.77
34742;BME280;20968;42.696;23.360;2022-07-23T02:16:14;95528.44;;;24.65;48.57
34742;BME280;20968;42.696;23.360;2022-07-23T02:18:39;95524.31;;;24.66;48.66
34742;BME280;20968;42.696;23.360;2022-07-23T02:21:05;95525.25;;;24.61;48.70
34742;BME280;20968;42.696;23.360;2022-07-23T02:23:34;95537.44;;;24.63;48.86
34742;BME280;20968;42.696;23.360;2022-07-23T02:25:59;95525.25;;;24.61;49.11
34742;BME280;20968;42.696;23.360;2022-07-23T02:28:24;95531.25;;;24.57;48.90
34742;BME280;20968;42.696;23.360;2022-07-23T02:30:50;95536.88;;;24.50;49.14
34742;BME280;20968;42.696;23.360;2022-07-23T02:33:15;95525.19;;;24.38;49.23
34742;BME280;20968;42.696;23.360;2022-07-23T02:35:41;95522.19;;;24.36;49.54
34742;BME280;20968;42.696;23.360;2022-07-23T02:38:06;95527.22;;;24.31;49.49
34742;BME280;20968;42.696;23.360;2022-07-23T02:40:32;95530.97;;;24.26;49.89
34742;BME280;20968;42.696;23.360;2022-07-23T02:42:57;95540.16;;;24.19;50.04
34742;BME280;20968;42.696;23.360;2022-07-23T02:45:22;95531.50;;;24.17;50.14
34742;BME280;20968;42.696;23.360;2022-07-23T02:47:48;95533.03;;;24.18;50.26
34742;BME280;20968;42.696;23.360;2022-07-23T02:50:13;95543.19;;;24.21;50.26
34742;BME280;20968;42.696;23.360;2022-07-23T02:52:38;95533.75;;;24.11;50.68
34742;BME280;20968;42.696;23.360;2022-07-23T02:55:05;95541.47;;;24.18;50.81
34742;BME280;20968;42.696;23.360;2022-07-23T02:57:30;95544.44;;;24.12;50.70
34742;BME280;20968;42.696;23.360;2022-07-23T02:59:56;95538.66;;;24.10;50.53
34742;BME280;20968;42.696;23.360;2022-07-23T03:02:21;95546.13;;;24.08;50.78
34742;BME280;20968;42.696;23.360;2022-07-23T03:04:46;95556.47;;;24.13;50.93
34742;BME280;20968;42.696;23.360;2022-07-23T03:07:12;95554.00;;;24.02;50.97
34742;BME280;20968;42.696;23.360;2022-07-23T03:09:37;95548.50;;;23.89;51.29
34742;BME280;20968;42.696;23.360;2022-07-23T03:12:03;95554.09;;;23.81;51.50
34742;BME280;20968;42.696;23.360;2022-07-23T03:14:28;95556.75;;;23.87;51.61
34742;BME280;20968;42.696;23.360;2022-07-23T03:16:54;95555.44;;;23.88;51.54
34742;BME280;20968;42.696;23.360;2022-07-23T03:19:20;95553.19;;;23.86;51.26
34742;BME280;20968;42.696;23.360;2022-07-23T03:21:45;95566.47;;;23.78;51.47
34742;BME280;20968;42.696;23.360;2022-07-23T03:24:10;95570.72;;;23.72;51.75
34742;BME280;20968;42.696;23.360;2022-07-23T03:26:36;95565.09;;;23.72;52.02
34742;BME280;20968;42.696;23.360;2022-07-23T03:29:02;95575.28;;;23.75;52.00
34742;BME280;20968;42.696;23.360;2022-07-23T03:31:29;95574.91;;;23.78;52.09
34742;BME280;20968;42.696;23.360;2022-07-23T03:33:56;95570.94;;;23.74;52.12
34742;BME280;20968;42.696;23.360;2022-07-23T03:36:22;95573.19;;;23.75;52.17
34742;BME280;20968;42.696;23.360;2022-07-23T03:38:47;95560.03;;;23.70;52.03
34742;BME280;20968;42.696;23.360;2022-07-23T03:41:12;95574.50;;;23.74;51.84
34742;BME280;20968;42.696;23.360;2022-07-23T03:43:38;95576.00;;;23.75;52.03
34742;BME280;20968;42.696;23.360;2022-07-23T03:46:03;95572.53;;;23.62;52.02
34742;BME280;20968;42.696;23.360;2022-07-23T03:48:29;95573.31;;;23.70;51.80
34742;BME280;20968;42.696;23.360;2022-07-23T03:50:54;95573.84;;;23.61;52.07
34742;BME280;20968;42.696;23.360;2022-07-23T03:53:19;95569.53;;;23.60;52.18
34742;BME280;20968;42.696;23.360;2022-07-23T03:55:45;95578.56;;;23.66;52.13
34742;BME280;20968;42.696;23.360;2022-07-23T03:58:10;95577.84;;;23.73;52.12
34742;BME280;20968;42.696;23.360;2022-07-23T04:00:36;95569.19;;;23.71;52.17
34742;BME280;20968;42.696;23.360;2022-07-23T04:03:01;95572.00;;;23.71;51.84
34742;BME280;20968;42.696;23.360;2022-07-23T04:05:26;95574.50;;;23.74;51.73
34742;BME280;20968;42.696;23.360;2022-07-23T04:07:52;95573.97;;;23.76;51.62
34742;BME280;20968;42.696;23.360;2022-07-23T04:10:17;95585.44;;;23.85;51.55
34742;BME280;20968;42.696;23.360;2022-07-23T04:12:43;95579.31;;;23.94;51.82
34742;BME280;20968;42.696;23.360;2022-07-23T04:15:08;95592.25;;;23.97;51.90
34742;BME280;20968;42.696;23.360;2022-07-23T04:17:34;95578.00;;;24.03;51.79
34742;BME280;20968;42.696;23.360;2022-07-23T04:19:59;95578.41;;;24.07;51.66
34742;BME280;20968;42.696;23.360;2022-07-23T04:22:25;95584.63;;;24.13;51.56
34742;BME280;20968;42.696;23.360;2022-07-23T04:24:50;95589.34;;;24.18;51.34
34742;BME280;20968;42.696;23.360;2022-07-23T04:27:16;95585.59;;;24.23;50.95
34742;BME280;20968;42.696;23.360;2022-07-23T04:29:41;95581.09;;;24.20;50.72
34742;BME280;20968;42.696;23.360;2022-07-23T04:32:07;95582.59;;;24.21;50.96
34742;BME280;20968;42.696;23.360;2022-07-23T04:34:32;95593.09;;;24.20;51.08
34742;BME280;20968;42.696;23.360;2022-07-23T04:36:57;95590.50;;;23.87;51.17
34742;BME280;20968;42.696;23.360;2022-07-23T04:39:23;95593.47;;;23.81;51.62
34742;BME280;20968;42.696;23.360;2022-07-23T04:41:48;95586.59;;;23.90;51.83
34742;BME280;20968;42.696;23.360;2022-07-23T04:44:14;95590.16;;;23.62;52.17
34742;BME280;20968;42.696;23.360;2022-07-23T04:46:39;95589.94;;;23.81;52.22
34742;BME280;20968;42.696;23.360;2022-07-23T04:49:05;95592.97;;;23.90;52.27
34742;BME280;20968;42.696;23.360;2022-07-23T04:51:30;95596.00;;;24.00;52.03
34742;BME280;20968;42.696;23.360;2022-07-23T04:53:55;95593.38;;;23.94;51.86
34742;BME280;20968;42.696;23.360;2022-07-23T04:56:21;95614.47;;;24.16;51.83
34742;BME280;20968;42.696;23.360;2022-07-23T04:58:46;95603.88;;;23.94;52.36
34742;BME280;20968;42.696;23.360;2022-07-23T05:01:12;95604.38;;;23.85;52.39
34742;BME280;20968;42.696;23.360;2022-07-23T05:03:38;95606.22;;;24.10;52.21
34742;BME280;20968;42.696;23.360;2022-07-23T05:06:03;95606.56;;;24.07;52.11
34742;BME280;20968;42.696;23.360;2022-07-23T05:08:29;95602.25;;;24.06;52.15
34742;BME280;20968;42.696;23.360;2022-07-23T05:10:54;95597.66;;;24.38;52.25
34742;BME280;20968;42.696;23.360;2022-07-23T05:13:20;95599.44;;;24.56;51.36
34742;BME280;20968;42.696;23.360;2022-07-23T05:15:46;95599.09;;;24.74;51.75
34742;BME280;20968;42.696;23.360;2022-07-23T05:18:12;95600.44;;;24.88;51.82
34742;BME280;20968;42.696;23.360;2022-07-23T05:20:38;95608.19;;;25.10;50.98
34742;BME280;20968;42.696;23.360;2022-07-23T05:23:03;95611.19;;;25.27;49.99
34742;BME280;20968;42.696;23.360;2022-07-23T05:25:29;95611.00;;;25.40;49.87
34742;BME280;20968;42.696;23.360;2022-07-23T05:27:54;95609.84;;;25.50;50.73
34742;BME280;20968;42.696;23.360;2022-07-23T05:30:20;95613.41;;;25.66;49.46
34742;BME280;20968;42.696;23.360;2022-07-23T05:32:46;95609.09;;;25.80;49.63
34742;BME280;20968;42.696;23.360;2022-07-23T05:35:11;95609.97;;;25.90;49.72
34742;BME280;20968;42.696;23.360;2022-07-23T05:37:37;95610.50;;;26.10;48.65
34742;BME280;20968;42.696;23.360;2022-07-23T05:40:08;95606.03;;;25.93;49.14
34742;BME280;20968;42.696;23.360;2022-07-23T05:42:38;95617.16;;;25.83;48.78
34742;BME280;20968;42.696;23.360;2022-07-23T05:45:05;95615.84;;;25.62;49.32
34742;BME280;20968;42.696;23.360;2022-07-23T05:47:44;95614.34;;;25.76;49.47
34742;BME280;20968;42.696;23.360;2022-07-23T05:50:11;95622.81;;;25.83;49.52
34742;BME280;20968;42.696;23.360;2022-07-23T05:52:36;95609.69;;;25.41;48.94
34742;BME280;20968;42.696;23.360;2022-07-23T05:55:02;95617.41;;;25.18;50.00
34742;BME280;20968;42.696;23.360;2022-07-23T05:57:27;95607.63;;;25.19;51.42
34742;BME280;20968;42.696;23.360;2022-07-23T05:59:53;95613.25;;;25.41;51.33
34742;BME280;20968;42.696;23.360;2022-07-23T06:02:18;95605.31;;;25.70;50.08
34742;BME280;20968;42.696;23.360;2022-07-23T06:04:43;95605.06;;;25.97;48.91
34742;BME280;20968;42.696;23.360;2022-07-23T06:07:09;95612.44;;;25.78;48.86
34742;BME280;20968;42.696;23.360;2022-07-23T06:09:34;95604.56;;;25.84;49.29
34742;BME280;20968;42.696;23.360;2022-07-23T06:11:59;95604.53;;;25.92;49.26
34742;BME280;20968;42.696;23.360;2022-07-23T06:14:25;95596.63;;;25.83;48.32
34742;BME280;20968;42.696;23.360;2022-07-23T06:16:50;95607.53;;;25.94;48.69
34742;BME280;20968;42.696;23.360;2022-07-23T06:19:16;95603.63;;;26.28;48.65
34742;BME280;20968;42.696;23.360;2022-07-23T06:21:41;95598.03;;;26.21;48.09
34742;BME280;20968;42.696;23.360;2022-07-23T06:24:06;95600.47;;;26.24;48.05
34742;BME280;20968;42.696;23.360;2022-07-23T06:26:32;95595.06;;;26.11;47.63
34742;BME280;20968;42.696;23.360;2022-07-23T06:28:57;95602.19;;;26.12;47.62
34742;BME280;20968;42.696;23.360;2022-07-23T06:31:23;95592.91;;;26.27;47.92
34742;BME280;20968;42.696;23.360;2022-07-23T06:33:48;95585.53;;;26.31;47.70
34742;BME280;20968;42.696;23.360;2022-07-23T06:36:13;95598.66;;;26.51;46.46
34742;BME280;20968;42.696;23.360;2022-07-23T06:38:39;95597.44;;;26.62;47.85
34742;BME280;20968;42.696;23.360;2022-07-23T06:41:04;95593.28;;;26.94;47.07
34742;BME280;20968;42.696;23.360;2022-07-23T06:43:30;95595.00;;;27.22;46.48
34742;BME280;20968;42.696;23.360;2022-07-23T06:45:56;95597.50;;;27.18;45.17
34742;BME280;20968;42.696;23.360;2022-07-23T06:48:21;95591.84;;;27.18;45.77
34742;BME280;20968;42.696;23.360;2022-07-23T06:50:47;95598.56;;;27.47;45.74
34742;BME280;20968;42.696;23.360;2022-07-23T06:53:13;95591.38;;;27.70;45.49
34742;BME280;20968;42.696;23.360;2022-07-23T06:55:38;95585.81;;;27.62;45.62
34742;BME280;20968;42.696;23.360;2022-07-23T06:58:05;95586.22;;;27.93;45.23
34742;BME280;20968;42.696;23.360;2022-07-23T07:00:30;95591.22;;;28.02;45.32
34742;BME280;20968;42.696;23.360;2022-07-23T07:02:56;95590.66;;;28.20;45.15
34742;BME280;20968;42.696;23.360;2022-07-23T07:05:22;95581.66;;;28.31;44.83
34742;BME280;20968;42.696;23.360;2022-07-23T07:07:48;95582.31;;;28.39;43.49
34742;BME280;20968;42.696;23.360;2022-07-23T07:10:13;95581.56;;;28.65;43.10
34742;BME280;20968;42.696;23.360;2022-07-23T07:12:41;95582.13;;;28.80;43.56
34742;BME280;20968;42.696;23.360;2022-07-23T07:15:07;95576.88;;;29.03;42.46
34742;BME280;20968;42.696;23.360;2022-07-23T07:17:32;95577.38;;;29.18;41.09
34742;BME280;20968;42.696;23.360;2022-07-23T07:19:57;95580.56;;;29.32;42.90
34742;BME280;20968;42.696;23.360;2022-07-23T07:22:23;95573.75;;;29.44;41.31
34742;BME280;20968;42.696;23.360;2022-07-23T07:24:48;95579.38;;;29.35;39.54
34742;BME280;20968;42.696;23.360;2022-07-23T07:27:14;95575.41;;;29.47;42.29
34742;BME280;20968;42.696;23.360;2022-07-23T07:29:39;95567.09;;;29.68;39.82
34742;BME280;20968;42.696;23.360;2022-07-23T07:32:05;95569.00;;;29.56;38.90
34742;BME280;20968;42.696;23.360;2022-07-23T07:34:30;95571.88;;;29.75;39.43
34742;BME280;20968;42.696;23.360;2022-07-23T07:36:56;95563.66;;;29.79;39.00
34742;BME280;20968;42.696;23.360;2022-07-23T07:39:21;95563.53;;;29.96;39.01
34742;BME280;20968;42.696;23.360;2022-07-23T07:41:47;95563.09;;;30.09;39.14
34742;BME280;20968;42.696;23.360;2022-07-23T07:44:12;95562.94;;;30.26;39.77
34742;BME280;20968;42.696;23.360;2022-07-23T07:46:37;95556.34;;;30.33;37.91
34742;BME280;20968;42.696;23.360;2022-07-23T07:49:03;95564.56;;;30.38;38.22
34742;BME280;20968;42.696;23.360;2022-07-23T07:51:28;95563.22;;;30.39;38.28
34742;BME280;20968;42.696;23.360;2022-07-23T07:53:54;95563.53;;;30.24;37.16
34742;BME280;20968;42.696;23.360;2022-07-23T07:56:19;95559.63;;;30.29;37.20
34742;BME280;20968;42.696;23.360;2022-07-23T07:58:44;95555.16;;;30.36;37.49
34742;BME280;20968;42.696;23.360;2022-07-23T08:01:10;95552.72;;;30.61;37.75
34742;BME280;20968;42.696;23.360;2022-07-23T08:03:35;95549.69;;;30.78;38.76
34742;BME280;20968;42.696;23.360;2022-07-23T08:06:01;95545.16;;;30.93;38.58
34742;BME280;20968;42.696;23.360;2022-07-23T08:08:26;95556.50;;;31.12;37.47
34742;BME280;20968;42.696;23.360;2022-07-23T08:10:51;95550.38;;;31.37;37.25
34742;BME280;20968;42.696;23.360;2022-07-23T08:13:17;95548.81;;;31.45;36.09
34742;BME280;20968;42.696;23.360;2022-07-23T08:15:43;95548.47;;;31.30;37.04
34742;BME280;20968;42.696;23.360;2022-07-23T08:18:09;95545.38;;;31.47;37.13
34742;BME280;20968;42.696;23.360;2022-07-23T08:20:35;95548.47;;;31.60;37.37
34742;BME280;20968;42.696;23.360;2022-07-23T08:23:04;95545.97;;;31.75;36.28
34742;BME280;20968;42.696;23.360;2022-07-23T08:25:33;95542.91;;;31.83;36.47
34742;BME280;20968;42.696;23.360;2022-07-23T08:27:59;95540.06;;;32.04;34.30
34742;BME280;20968;42.696;23.360;2022-07-23T08:30:26;95541.38;;;32.12;34.73
34742;BME280;20968;42.696;23.360;2022-07-23T08:32:59;95534.69;;;32.19;32.94
34742;BME280;20968;42.696;23.360;2022-07-23T08:35:33;95535.66;;;32.12;32.60
34742;BME280;20968;42.696;23.360;2022-07-23T08:38:01;95540.88;;;31.95;32.48
34742;BME280;20968;42.696;23.360;2022-07-23T08:40:29;95533.81;;;31.75;33.44
34742;BME280;20968;42.696;23.360;2022-07-23T08:42:55;95538.91;;;31.76;34.30
34742;BME280;20968;42.696;23.360;2022-07-23T08:45:22;95541.56;;;31.84;33.83
34742;BME280;20968;42.696;23.360;2022-07-23T08:47:53;95536.00;;;31.86;33.48
34742;BME280;20968;42.696;23.360;2022-07-23T08:50:19;95539.25;;;31.92;33.70
34742;BME280;20968;42.696;23.360;2022-07-23T08:52:45;95527.63;;;31.99;34.26
34742;BME280;20968;42.696;23.360;2022-07-23T08:55:11;95536.59;;;32.26;32.90
34742;BME280;20968;42.696;23.360;2022-07-23T08:57:36;95525.34;;;32.40;33.61
34742;BME280;20968;42.696;23.360;2022-07-23T09:00:03;95524.50;;;32.48;32.60
34742;BME280;20968;42.696;23.360;2022-07-23T09:02:29;95525.63;;;32.55;33.61
34742;BME280;20968;42.696;23.360;2022-07-23T09:04:54;95520.75;;;32.78;34.26
34742;BME280;20968;42.696;23.360;2022-07-23T09:07:20;95511.34;;;32.87;32.34
34742;BME280;20968;42.696;23.360;2022-07-23T09:09:45;95518.44;;;32.98;33.14
34742;BME280;20968;42.696;23.360;2022-07-23T09:12:11;95523.78;;;33.03;33.21
34742;BME280;20968;42.696;23.360;2022-07-23T09:17:09;95520.47;;;33.29;31.32
34742;BME280;20968;42.696;23.360;2022-07-23T09:19:35;95518.81;;;33.38;31.25
34742;BME280;20968;42.696;23.360;2022-07-23T09:22:23;95512.25;;;33.47;30.75
34742;BME280;20968;42.696;23.360;2022-07-23T09:25:11;95519.19;;;33.67;31.35
34742;BME280;20968;42.696;23.360;2022-07-23T09:27:58;95510.72;;;33.80;30.43
34742;BME280;20968;42.696;23.360;2022-07-23T09:30:27;95509.78;;;34.01;31.25
34742;BME280;20968;42.696;23.360;2022-07-23T09:35:50;95501.84;;;34.60;30.75
34742;BME280;20968;42.696;23.360;2022-07-23T09:38:16;95501.59;;;34.56;28.45
34742;BME280;20968;42.696;23.360;2022-07-23T09:40:43;95505.38;;;34.47;27.98
34742;BME280;20968;42.696;23.360;2022-07-23T09:43:08;95496.56;;;34.43;29.77
34742;BME280;20968;42.696;23.360;2022-07-23T09:45:34;95491.16;;;34.49;28.43
34742;BME280;20968;42.696;23.360;2022-07-23T09:48:14;95489.69;;;34.73;29.26
34742;BME280;20968;42.696;23.360;2022-07-23T09:50:41;95485.16;;;34.95;29.35
34742;BME280;20968;42.696;23.360;2022-07-23T09:53:07;95483.09;;;35.09;30.71
34742;BME280;20968;42.696;23.360;2022-07-23T09:55:34;95490.00;;;35.17;29.80
34742;BME280;20968;42.696;23.360;2022-07-23T09:58:06;95481.75;;;35.37;28.15
34742;BME280;20968;42.696;23.360;2022-07-23T10:00:36;95469.78;;;35.54;28.19
34742;BME280;20968;42.696;23.360;2022-07-23T10:03:03;95474.09;;;35.68;28.72
34742;BME280;20968;42.696;23.360;2022-07-23T10:05:30;95473.25;;;35.79;29.41
34742;BME280;20968;42.696;23.360;2022-07-23T10:07:57;95468.22;;;35.93;29.69
34742;BME280;20968;42.696;23.360;2022-07-23T10:10:26;95470.84;;;36.16;27.40
34742;BME280;20968;42.696;23.360;2022-07-23T10:12:54;95464.97;;;36.14;26.04
34742;BME280;20968;42.696;23.360;2022-07-23T10:15:31;95457.72;;;36.26;27.72
34742;BME280;20968;42.696;23.360;2022-07-23T10:17:57;95460.84;;;36.17;27.50
34742;BME280;20968;42.696;23.360;2022-07-23T10:20:22;95455.78;;;36.31;27.04
34742;BME280;20968;42.696;23.360;2022-07-23T10:22:59;95445.03;;;36.31;26.19
34742;BME280;20968;42.696;23.360;2022-07-23T10:25:41;95459.94;;;36.28;24.65
34742;BME280;20968;42.696;23.360;2022-07-23T10:36:11;95442.81;;;36.30;25.24
34742;BME280;20968;42.696;23.360;2022-07-23T10:38:50;95438.53;;;36.59;23.43
34742;BME280;20968;42.696;23.360;2022-07-23T10:41:34;95433.66;;;36.77;23.90
34742;BME280;20968;42.696;23.360;2022-07-23T10:44:17;95437.44;;;36.66;24.31
34742;BME280;20968;42.696;23.360;2022-07-23T10:47:04;95428.38;;;36.72;23.04
34742;BME280;20968;42.696;23.360;2022-07-23T10:49:36;95430.22;;;36.81;23.18
34742;BME280;20968;42.696;23.360;2022-07-23T10:57:09;95418.09;;;36.67;22.68
34742;BME280;20968;42.696;23.360;2022-07-23T11:02:33;95407.63;;;37.04;23.10
34742;BME280;20968;42.696;23.360;2022-07-23T11:05:04;95407.88;;;37.26;23.10
34742;BME280;20968;42.696;23.360;2022-07-23T11:07:30;95405.72;;;37.41;22.01
34742;BME280;20968;42.696;23.360;2022-07-23T11:09:56;95398.75;;;37.46;21.48
34742;BME280;20968;42.696;23.360;2022-07-23T11:15:07;95388.28;;;37.70;21.03
34742;BME280;20968;42.696;23.360;2022-07-23T11:17:58;95397.88;;;37.92;20.65
34742;BME280;20968;42.696;23.360;2022-07-23T11:20:27;95397.63;;;37.86;21.12
34742;BME280;20968;42.696;23.360;2022-07-23T11:22:57;95391.22;;;37.55;20.51
34742;BME280;20968;42.696;23.360;2022-07-23T11:28:07;95390.81;;;37.62;20.73
34742;BME280;20968;42.696;23.360;2022-07-23T11:35:35;95375.41;;;37.89;21.88
34742;BME280;20968;42.696;23.360;2022-07-23T11:38:27;95374.84;;;38.10;21.57
34742;BME280;20968;42.696;23.360;2022-07-23T11:40:54;95358.81;;;37.87;20.75
34742;BME280;20968;42.696;23.360;2022-07-23T11:43:22;95368.50;;;38.13;21.62
34742;BME280;20968;42.696;23.360;2022-07-23T11:45:52;95372.31;;;38.35;22.17
34742;BME280;20968;42.696;23.360;2022-07-23T11:48:23;95360.03;;;38.17;20.38
34742;BME280;20968;42.696;23.360;2022-07-23T11:50:51;95359.59;;;37.72;20.94
34742;BME280;20968;42.696;23.360;2022-07-23T11:53:32;95358.47;;;37.79;21.11
34742;BME280;20968;42.696;23.360;2022-07-23T11:56:10;95361.09;;;38.08;20.33
34742;BME280;20968;42.696;23.360;2022-07-23T11:58:36;95354.94;;;38.33;19.28
34742;BME280;20968;42.696;23.360;2022-07-23T12:01:02;95358.19;;;38.60;21.28
34742;BME280;20968;42.696;23.360;2022-07-23T12:03:27;95357.19;;;38.54;20.00
34742;BME280;20968;42.696;23.360;2022-07-23T12:05:56;95350.13;;;38.39;19.17
34742;BME280;20968;42.696;23.360;2022-07-23T12:08:22;95352.38;;;38.41;18.99
34742;BME280;20968;42.696;23.360;2022-07-23T12:10:48;95349.53;;;38.23;19.83
34742;BME280;20968;42.696;23.360;2022-07-23T12:13:16;95352.16;;;38.35;19.03
34742;BME280;20968;42.696;23.360;2022-07-23T12:15:45;95347.94;;;38.38;17.51
34742;BME280;20968;42.696;23.360;2022-07-23T12:18:13;95350.63;;;38.51;17.24
34742;BME280;20968;42.696;23.360;2022-07-23T12:20:48;95344.34;;;38.57;17.80
34742;BME280;20968;42.696;23.360;2022-07-23T12:23:15;95342.38;;;38.61;17.77
34742;BME280;20968;42.696;23.360;2022-07-23T12:25:45;95341.44;;;38.74;17.67
34742;BME280;20968;42.696;23.360;2022-07-23T12:30:41;95327.63;;;38.71;17.67
34742;BME280;20968;42.696;23.360;2022-07-23T12:33:08;95334.50;;;38.81;18.33
34742;BME280;20968;42.696;23.360;2022-07-23T12:35:45;95325.47;;;38.91;18.72
34742;BME280;20968;42.696;23.360;2022-07-23T12:38:14;95326.56;;;38.82;18.33
34742;BME280;20968;42.696;23.360;2022-07-23T12:41:06;95322.47;;;38.87;19.62
34742;BME280;20968;42.696;23.360;2022-07-23T12:43:36;95319.50;;;39.04;19.46
34742;BME280;20968;42.696;23.360;2022-07-23T12:48:32;95315.69;;;38.61;19.58
34742;BME280;20968;42.696;23.360;2022-07-23T12:51:02;95309.22;;;38.43;19.24
34742;BME280;20968;42.696;23.360;2022-07-23T12:56:11;95307.38;;;38.69;18.79
34742;BME280;20968;42.696;23.360;2022-07-23T13:06:33;95306.59;;;39.26;17.82
34742;BME280;20968;42.696;23.360;2022-07-23T13:08:59;95305.34;;;39.31;17.50
34742;BME280;20968;42.696;23.360;2022-07-23T13:11:25;95302.75;;;39.39;16.14
34742;BME280;20968;42.696;23.360;2022-07-23T13:13:50;95297.31;;;39.28;16.26
34742;BME280;20968;42.696;23.360;2022-07-23T13:16:16;95299.09;;;39.17;17.50
34742;BME280;20968;42.696;23.360;2022-07-23T13:18:41;95293.16;;;39.13;17.19
34742;BME280;20968;42.696;23.360;2022-07-23T13:21:08;95299.31;;;39.23;17.29
34742;BME280;20968;42.696;23.360;2022-07-23T13:23:33;95299.44;;;39.27;15.73
34742;BME280;20968;42.696;23.360;2022-07-23T13:25:59;95295.22;;;39.30;15.79
34742;BME280;20968;42.696;23.360;2022-07-23T13:28:24;95291.00;;;39.33;16.90
34742;BME280;20968;42.696;23.360;2022-07-23T13:30:51;95291.41;;;39.45;17.65
34742;BME280;20968;42.696;23.360;2022-07-23T13:33:23;95282.38;;;39.55;16.87
34742;BME280;20968;42.696;23.360;2022-07-23T13:35:49;95288.34;;;39.61;16.48
34742;BME280;20968;42.696;23.360;2022-07-23T13:38:16;95294.06;;;39.59;17.29